sensor_id;sensor_type;location;lat;lon;timestamp;pressure;altitude;pressure_sealevel;temperature;humidity
20971;BME280;10644;48.834;10.088;2024-01-16T00:00:31;95984.03;;;2.10;58.47
20971;BME280;10644;48.834;10.088;2024-01-16T00:02:56;95988.03;;;2.15;58.74
20971;BME280;10644;48.834;10.088;2024-01-16T00:05:22;95986.03;;;2.00;58.54
20971;BME280;10644;48.834;10.088;2024-01-16T00:07:47;95991.75;;;1.79;59.18
20971;BME280;10644;48.834;10.088;2024-01-16T00:10:13;95995.53;;;1.66;59.64
20971;BME280;10644;48.834;10.088;2024-01-16T00:12:40;96000.63;;;1.65;59.70
20971;BME280;10644;48.834;10.088;2024-01-16T00:15:06;95998.44;;;1.80;59.11
20971;BME280;10644;48.834;10.088;2024-01-16T00:17:32;96005.75;;;1.89;59.33
20971;BME280;10644;48.834;10.088;2024-01-16T00:19:57;96001.19;;;2.00;58.78
20971;BME280;10644;48.834;10.088;2024-01-16T00:22:28;96012.91;;;2.01;58.72
20971;BME280;10644;48.834;10.088;2024-01-16T00:24:54;96002.66;;;2.06;58.67
20971;BME280;10644;48.834;10.088;2024-01-16T00:27:19;95994.44;;;1.99;58.55
20971;BME280;10644;48.834;10.088;2024-01-16T00:29:44;95985.03;;;2.04;58.57
20971;BME280;10644;48.834;10.088;2024-01-16T00:32:10;95992.59;;;2.04;58.48
20971;BME280;10644;48.834;10.088;2024-01-16T00:34:35;96003.38;;;2.09;58.40
20971;BME280;10644;48.834;10.088;2024-01-16T00:37:01;96004.06;;;2.14;58.32
20971;BME280;10644;48.834;10.088;2024-01-16T00:39:26;96006.22;;;2.00;59.07
20971;BME280;10644;48.834;10.088;2024-01-16T00:41:51;95998.94;;;2.17;58.33
20971;BME280;10644;48.834;10.088;2024-01-16T00:44:17;96014.28;;;2.11;58.30
20971;BME280;10644;48.834;10.088;2024-01-16T00:46:42;96008.16;;;1.92;58.78
20971;BME280;10644;48.834;10.088;2024-01-16T00:49:07;96016.88;;;1.82;59.15
20971;BME280;10644;48.834;10.088;2024-01-16T00:51:33;96012.19;;;1.98;58.97
20971;BME280;10644;48.834;10.088;2024-01-16T00:53:58;96008.56;;;2.06;58.70
20971;BME280;10644;48.834;10.088;2024-01-16T00:56:24;96016.22;;;1.77;59.53
20971;BME280;10644;48.834;10.088;2024-01-16T00:58:52;96018.44;;;1.86;58.68
20971;BME280;10644;48.834;10.088;2024-01-16T01:01:19;96013.97;;;1.68;59.56
20971;BME280;10644;48.834;10.088;2024-01-16T01:03:44;96018.75;;;1.77;59.11
20971;BME280;10644;48.834;10.088;2024-01-16T01:06:09;96027.97;;;1.78;58.96
20971;BME280;10644;48.834;10.088;2024-01-16T01:08:37;96020.19;;;1.84;59.19
20971;BME280;10644;48.834;10.088;2024-01-16T01:11:03;96014.31;;;1.84;58.77
20971;BME280;10644;48.834;10.088;2024-01-16T01:13:28;96015.63;;;1.69;58.80
20971;BME280;10644;48.834;10.088;2024-01-16T01:15:56;96029.84;;;1.72;58.38
20971;BME280;10644;48.834;10.088;2024-01-16T01:18:21;96019.41;;;1.82;58.82
20971;BME280;10644;48.834;10.088;2024-01-16T01:20:47;96034.59;;;1.53;59.46
20971;BME280;10644;48.834;10.088;2024-01-16T01:23:13;96031.06;;;1.60;59.41
20971;BME280;10644;48.834;10.088;2024-01-16T01:25:38;96040.16;;;1.64;59.13
20971;BME280;10644;48.834;10.088;2024-01-16T01:28:04;96049.56;;;1.59;59.18
20971;BME280;10644;48.834;10.088;2024-01-16T01:30:29;96044.44;;;1.62;58.83
20971;BME280;10644;48.834;10.088;2024-01-16T01:32:57;96039.47;;;1.59;58.94
20971;BME280;10644;48.834;10.088;2024-01-16T01:35:22;96050.09;;;1.41;59.52
20971;BME280;10644;48.834;10.088;2024-01-16T01:37:47;96043.66;;;1.60;59.32
20971;BME280;10644;48.834;10.088;2024-01-16T01:40:13;96047.28;;;1.79;58.64
20971;BME280;10644;48.834;10.088;2024-01-16T01:42:41;96049.34;;;1.94;58.34
20971;BME280;10644;48.834;10.088;2024-01-16T01:45:10;96049.19;;;1.99;57.91
20971;BME280;10644;48.834;10.088;2024-01-16T01:47:39;96053.19;;;2.04;58.17
20971;BME280;10644;48.834;10.088;2024-01-16T01:50:06;96056.78;;;1.97;58.09
20971;BME280;10644;48.834;10.088;2024-01-16T01:52:33;96060.09;;;1.99;57.70
20971;BME280;10644;48.834;10.088;2024-01-16T01:54:58;96055.91;;;1.98;57.59
20971;BME280;10644;48.834;10.088;2024-01-16T01:57:24;96053.13;;;2.07;57.38
20971;BME280;10644;48.834;10.088;2024-01-16T01:59:50;96055.69;;;2.06;57.01
20971;BME280;10644;48.834;10.088;2024-01-16T02:02:16;96051.56;;;2.03;57.32
20971;BME280;10644;48.834;10.088;2024-01-16T02:04:43;96068.56;;;2.24;56.86
20971;BME280;10644;48.834;10.088;2024-01-16T02:07:09;96060.31;;;2.19;56.33
20971;BME280;10644;48.834;10.088;2024-01-16T02:09:35;96069.28;;;2.28;56.22
20971;BME280;10644;48.834;10.088;2024-01-16T02:12:00;96070.38;;;2.21;56.40
20971;BME280;10644;48.834;10.088;2024-01-16T02:14:26;96072.41;;;2.10;57.16
20971;BME280;10644;48.834;10.088;2024-01-16T02:16:51;96053.84;;;2.11;56.51
20971;BME280;10644;48.834;10.088;2024-01-16T02:19:17;96078.06;;;2.16;57.02
20971;BME280;10644;48.834;10.088;2024-01-16T02:21:49;96073.63;;;2.24;56.65
20971;BME280;10644;48.834;10.088;2024-01-16T02:24:15;96069.31;;;2.26;56.14
20971;BME280;10644;48.834;10.088;2024-01-16T02:26:42;96067.41;;;2.34;56.42
20971;BME280;10644;48.834;10.088;2024-01-16T02:29:07;96048.31;;;2.26;56.41
20971;BME280;10644;48.834;10.088;2024-01-16T02:31:33;96063.16;;;2.35;56.55
20971;BME280;10644;48.834;10.088;2024-01-16T02:33:59;96051.19;;;2.40;56.24
20971;BME280;10644;48.834;10.088;2024-01-16T02:36:25;96062.66;;;2.50;56.00
20971;BME280;10644;48.834;10.088;2024-01-16T02:38:51;96065.19;;;2.50;55.89
20971;BME280;10644;48.834;10.088;2024-01-16T02:41:19;96062.56;;;2.53;55.97
20971;BME280;10644;48.834;10.088;2024-01-16T02:43:45;96058.25;;;2.56;56.02
20971;BME280;10644;48.834;10.088;2024-01-16T02:46:11;96059.69;;;2.63;56.03
20971;BME280;10644;48.834;10.088;2024-01-16T02:48:46;96054.47;;;2.68;55.65
20971;BME280;10644;48.834;10.088;2024-01-16T02:51:11;96052.91;;;2.64;55.42
20971;BME280;10644;48.834;10.088;2024-01-16T02:53:38;96052.56;;;2.74;55.59
20971;BME280;10644;48.834;10.088;2024-01-16T02:56:03;96042.50;;;2.73;55.48
20971;BME280;10644;48.834;10.088;2024-01-16T02:58:30;96053.19;;;2.56;55.62
20971;BME280;10644;48.834;10.088;2024-01-16T03:00:58;96051.63;;;2.52;55.66
20971;BME280;10644;48.834;10.088;2024-01-16T03:03:23;96043.38;;;2.47;55.65
20971;BME280;10644;48.834;10.088;2024-01-16T03:05:50;96054.81;;;2.33;56.15
20971;BME280;10644;48.834;10.088;2024-01-16T03:08:15;96056.50;;;2.32;56.52
20971;BME280;10644;48.834;10.088;2024-01-16T03:10:40;96056.66;;;2.28;56.00
20971;BME280;10644;48.834;10.088;2024-01-16T03:13:08;96058.94;;;2.35;56.24
20971;BME280;10644;48.834;10.088;2024-01-16T03:15:36;96050.19;;;2.45;55.93
20971;BME280;10644;48.834;10.088;2024-01-16T03:18:01;96055.13;;;2.48;55.94
20971;BME280;10644;48.834;10.088;2024-01-16T03:20:28;96057.19;;;2.37;56.16
20971;BME280;10644;48.834;10.088;2024-01-16T03:22:53;96059.72;;;2.37;55.95
20971;BME280;10644;48.834;10.088;2024-01-16T03:25:19;96038.63;;;2.38;56.00
20971;BME280;10644;48.834;10.088;2024-01-16T03:27:44;96039.75;;;2.54;55.90
20971;BME280;10644;48.834;10.088;2024-01-16T03:30:12;96047.81;;;2.65;55.85
20971;BME280;10644;48.834;10.088;2024-01-16T03:32:38;96045.25;;;2.67;55.44
20971;BME280;10644;48.834;10.088;2024-01-16T03:35:05;96057.13;;;2.65;55.47
20971;BME280;10644;48.834;10.088;2024-01-16T03:37:31;96053.50;;;2.72;55.43
20971;BME280;10644;48.834;10.088;2024-01-16T03:39:56;96057.25;;;2.85;55.29
20971;BME280;10644;48.834;10.088;2024-01-16T03:42:22;96070.59;;;2.88;54.68
20971;BME280;10644;48.834;10.088;2024-01-16T03:44:47;96058.63;;;2.93;55.07
20971;BME280;10644;48.834;10.088;2024-01-16T03:47:13;96066.00;;;2.99;54.50
20971;BME280;10644;48.834;10.088;2024-01-16T03:49:38;96060.06;;;3.00;54.51
20971;BME280;10644;48.834;10.088;2024-01-16T03:52:06;96058.31;;;3.02;54.37
20971;BME280;10644;48.834;10.088;2024-01-16T03:54:31;96069.13;;;3.07;54.07
20971;BME280;10644;48.834;10.088;2024-01-16T03:56:57;96066.63;;;3.06;54.33
20971;BME280;10644;48.834;10.088;2024-01-16T03:59:22;96069.97;;;3.06;54.25
20971;BME280;10644;48.834;10.088;2024-01-16T04:01:48;96064.06;;;3.07;53.95
20971;BME280;10644;48.834;10.088;2024-01-16T04:04:14;96062.19;;;3.12;54.46
20971;BME280;10644;48.834;10.088;2024-01-16T04:06:40;96063.84;;;3.13;54.23
20971;BME280;10644;48.834;10.088;2024-01-16T04:09:08;96076.25;;;3.19;53.97
20971;BME280;10644;48.834;10.088;2024-01-16T04:11:34;96065.25;;;3.20;54.21
20971;BME280;10644;48.834;10.088;2024-01-16T04:14:00;96077.69;;;3.26;53.68
20971;BME280;10644;48.834;10.088;2024-01-16T04:16:25;96062.41;;;3.29;54.33
20971;BME280;10644;48.834;10.088;2024-01-16T04:18:53;96071.59;;;3.32;54.36
20971;BME280;10644;48.834;10.088;2024-01-16T04:21:18;96079.34;;;3.27;53.27
20971;BME280;10644;48.834;10.088;2024-01-16T04:23:46;96084.19;;;3.33;53.94
20971;BME280;10644;48.834;10.088;2024-01-16T04:26:14;96082.09;;;3.44;53.80
20971;BME280;10644;48.834;10.088;2024-01-16T04:28:41;96078.56;;;3.48;53.53
20971;BME280;10644;48.834;10.088;2024-01-16T04:31:08;96073.59;;;3.45;53.64
20971;BME280;10644;48.834;10.088;2024-01-16T04:33:33;96071.75;;;3.50;53.40
20971;BME280;10644;48.834;10.088;2024-01-16T04:35:58;96090.13;;;3.55;53.12
20971;BME280;10644;48.834;10.088;2024-01-16T04:38:24;96074.94;;;3.55;53.00
20971;BME280;10644;48.834;10.088;2024-01-16T04:40:52;96075.72;;;3.57;52.63
20971;BME280;10644;48.834;10.088;2024-01-16T04:43:17;96067.38;;;3.54;52.91
20971;BME280;10644;48.834;10.088;2024-01-16T04:45:42;96064.16;;;3.50;53.00
20971;BME280;10644;48.834;10.088;2024-01-16T04:48:10;96064.22;;;3.49;53.24
20971;BME280;10644;48.834;10.088;2024-01-16T04:50:35;96070.03;;;3.51;52.78
20971;BME280;10644;48.834;10.088;2024-01-16T04:53:01;96080.03;;;3.54;52.66
20971;BME280;10644;48.834;10.088;2024-01-16T04:55:29;96082.00;;;3.47;52.37
20971;BME280;10644;48.834;10.088;2024-01-16T04:57:56;96078.66;;;3.45;52.69
20971;BME280;10644;48.834;10.088;2024-01-16T05:00:22;96076.94;;;3.47;52.69
20971;BME280;10644;48.834;10.088;2024-01-16T05:02:48;96078.66;;;3.45;52.61
20971;BME280;10644;48.834;10.088;2024-01-16T05:05:14;96066.25;;;3.39;52.21
20971;BME280;10644;48.834;10.088;2024-01-16T05:07:42;96071.16;;;3.44;52.61
20971;BME280;10644;48.834;10.088;2024-01-16T05:10:12;96070.44;;;3.40;52.80
20971;BME280;10644;48.834;10.088;2024-01-16T05:12:41;96065.22;;;3.45;52.40
20971;BME280;10644;48.834;10.088;2024-01-16T05:15:09;96065.25;;;3.43;52.38
20971;BME280;10644;48.834;10.088;2024-01-16T05:17:36;96055.25;;;3.40;52.58
20971;BME280;10644;48.834;10.088;2024-01-16T05:20:05;96056.13;;;3.39;52.30
20971;BME280;10644;48.834;10.088;2024-01-16T05:22:30;96060.09;;;3.46;52.07
20971;BME280;10644;48.834;10.088;2024-01-16T05:24:56;96051.63;;;3.47;52.15
20971;BME280;10644;48.834;10.088;2024-01-16T05:27:21;96058.44;;;3.45;51.99
20971;BME280;10644;48.834;10.088;2024-01-16T05:29:47;96062.72;;;3.43;52.14
20971;BME280;10644;48.834;10.088;2024-01-16T05:32:13;96063.00;;;3.36;52.13
20971;BME280;10644;48.834;10.088;2024-01-16T05:34:39;96060.41;;;3.37;51.91
20971;BME280;10644;48.834;10.088;2024-01-16T05:37:04;96055.69;;;3.28;51.86
20971;BME280;10644;48.834;10.088;2024-01-16T05:39:32;96043.25;;;3.22;52.23
20971;BME280;10644;48.834;10.088;2024-01-16T05:41:57;96045.03;;;3.20;51.46
20971;BME280;10644;48.834;10.088;2024-01-16T05:44:23;96032.47;;;3.17;51.80
20971;BME280;10644;48.834;10.088;2024-01-16T05:46:48;96030.97;;;3.13;51.86
20971;BME280;10644;48.834;10.088;2024-01-16T05:49:13;96050.19;;;3.17;52.11
20971;BME280;10644;48.834;10.088;2024-01-16T05:51:39;96025.91;;;3.13;51.83
20971;BME280;10644;48.834;10.088;2024-01-16T05:54:04;96046.72;;;3.20;52.15
20971;BME280;10644;48.834;10.088;2024-01-16T05:56:31;96025.69;;;3.19;52.15
20971;BME280;10644;48.834;10.088;2024-01-16T05:58:57;96037.31;;;3.23;51.66
20971;BME280;10644;48.834;10.088;2024-01-16T06:01:22;96042.28;;;3.26;52.07
20971;BME280;10644;48.834;10.088;2024-01-16T06:03:48;96036.69;;;3.18;51.95
20971;BME280;10644;48.834;10.088;2024-01-16T06:06:14;96032.38;;;3.20;52.13
20971;BME280;10644;48.834;10.088;2024-01-16T06:08:39;96028.97;;;3.21;52.20
20971;BME280;10644;48.834;10.088;2024-01-16T06:11:04;96043.25;;;3.22;51.75
20971;BME280;10644;48.834;10.088;2024-01-16T06:13:30;96032.44;;;3.19;51.61
20971;BME280;10644;48.834;10.088;2024-01-16T06:15:59;96039.97;;;3.20;51.82
20971;BME280;10644;48.834;10.088;2024-01-16T06:18:24;96033.94;;;3.24;52.07
20971;BME280;10644;48.834;10.088;2024-01-16T06:20:49;96037.25;;;3.25;52.22
20971;BME280;10644;48.834;10.088;2024-01-16T06:23:15;96037.22;;;3.26;52.13
20971;BME280;10644;48.834;10.088;2024-01-16T06:25:40;96031.53;;;3.20;51.96
20971;BME280;10644;48.834;10.088;2024-01-16T06:28:06;96024.66;;;3.23;52.36
20971;BME280;10644;48.834;10.088;2024-01-16T06:30:32;96023.69;;;3.27;52.44
20971;BME280;10644;48.834;10.088;2024-01-16T06:32:57;96034.63;;;3.28;52.15
20971;BME280;10644;48.834;10.088;2024-01-16T06:35:23;96034.47;;;3.32;51.95
20971;BME280;10644;48.834;10.088;2024-01-16T06:37:48;96031.00;;;3.35;52.11
20971;BME280;10644;48.834;10.088;2024-01-16T06:40:14;96032.63;;;3.36;51.98
20971;BME280;10644;48.834;10.088;2024-01-16T06:42:39;96032.78;;;3.33;52.07
20971;BME280;10644;48.834;10.088;2024-01-16T06:45:05;96032.69;;;3.34;52.25
20971;BME280;10644;48.834;10.088;2024-01-16T06:47:31;96034.28;;;3.37;51.92
20971;BME280;10644;48.834;10.088;2024-01-16T06:49:56;96037.03;;;3.31;52.56
20971;BME280;10644;48.834;10.088;2024-01-16T06:52:22;96032.78;;;3.33;52.03
20971;BME280;10644;48.834;10.088;2024-01-16T06:54:47;96031.84;;;3.35;52.52
20971;BME280;10644;48.834;10.088;2024-01-16T06:57:13;96025.88;;;3.36;52.38
20971;BME280;10644;48.834;10.088;2024-01-16T06:59:38;96040.19;;;3.37;52.34
20971;BME280;10644;48.834;10.088;2024-01-16T07:02:03;96044.53;;;3.34;52.01
20971;BME280;10644;48.834;10.088;2024-01-16T07:04:29;96041.94;;;3.35;52.51
20971;BME280;10644;48.834;10.088;2024-01-16T07:06:54;96037.13;;;3.29;52.43
20971;BME280;10644;48.834;10.088;2024-01-16T07:09:19;96046.94;;;3.37;52.66
20971;BME280;10644;48.834;10.088;2024-01-16T07:11:46;96053.59;;;3.39;52.54
20971;BME280;10644;48.834;10.088;2024-01-16T07:14:12;96041.16;;;3.33;52.95
20971;BME280;10644;48.834;10.088;2024-01-16T07:16:37;96038.16;;;3.24;52.88
20971;BME280;10644;48.834;10.088;2024-01-16T07:19:03;96042.94;;;3.31;53.06
20971;BME280;10644;48.834;10.088;2024-01-16T07:21:28;96040.09;;;3.40;53.18
20971;BME280;10644;48.834;10.088;2024-01-16T07:23:54;96043.75;;;3.55;54.21
20971;BME280;10644;48.834;10.088;2024-01-16T07:26:20;96044.03;;;3.69;53.66
20971;BME280;10644;48.834;10.088;2024-01-16T07:28:45;96048.91;;;3.73;53.14
20971;BME280;10644;48.834;10.088;2024-01-16T07:31:13;96038.69;;;3.76;53.16
20971;BME280;10644;48.834;10.088;2024-01-16T07:33:39;96041.88;;;3.81;52.43
20971;BME280;10644;48.834;10.088;2024-01-16T07:36:05;96046.34;;;3.75;51.75
20971;BME280;10644;48.834;10.088;2024-01-16T07:38:30;96048.91;;;3.73;54.39
20971;BME280;10644;48.834;10.088;2024-01-16T07:40:55;96045.16;;;3.62;52.87
20971;BME280;10644;48.834;10.088;2024-01-16T07:43:21;96045.28;;;3.36;52.14
20971;BME280;10644;48.834;10.088;2024-01-16T07:45:47;96050.31;;;3.14;52.85
20971;BME280;10644;48.834;10.088;2024-01-16T07:48:14;96053.06;;;2.84;53.19
20971;BME280;10644;48.834;10.088;2024-01-16T07:50:40;96052.16;;;2.36;55.35
20971;BME280;10644;48.834;10.088;2024-01-16T07:53:05;96053.28;;;2.53;56.33
20971;BME280;10644;48.834;10.088;2024-01-16T07:55:31;96059.53;;;2.68;55.22
20971;BME280;10644;48.834;10.088;2024-01-16T07:57:56;96050.28;;;2.67;54.27
20971;BME280;10644;48.834;10.088;2024-01-16T08:00:21;96065.03;;;2.54;55.46
20971;BME280;10644;48.834;10.088;2024-01-16T08:02:47;96071.59;;;2.60;55.79
20971;BME280;10644;48.834;10.088;2024-01-16T08:05:15;96064.75;;;2.63;54.91
20971;BME280;10644;48.834;10.088;2024-01-16T08:07:43;96069.69;;;2.66;55.74
20971;BME280;10644;48.834;10.088;2024-01-16T08:10:09;96068.91;;;2.64;55.89
20971;BME280;10644;48.834;10.088;2024-01-16T08:12:34;96057.72;;;2.71;56.10
20971;BME280;10644;48.834;10.088;2024-01-16T08:15:00;96061.34;;;2.89;55.39
20971;BME280;10644;48.834;10.088;2024-01-16T08:17:25;96053.28;;;3.02;55.38
20971;BME280;10644;48.834;10.088;2024-01-16T08:19:50;96055.19;;;3.19;55.22
20971;BME280;10644;48.834;10.088;2024-01-16T08:22:16;96064.28;;;3.01;55.18
20971;BME280;10644;48.834;10.088;2024-01-16T08:24:41;96069.88;;;3.09;53.88
20971;BME280;10644;48.834;10.088;2024-01-16T08:27:06;96067.16;;;3.14;54.20
20971;BME280;10644;48.834;10.088;2024-01-16T08:29:32;96060.06;;;3.00;54.07
20971;BME280;10644;48.834;10.088;2024-01-16T08:31:57;96061.44;;;3.09;53.48
20971;BME280;10644;48.834;10.088;2024-01-16T08:34:22;96062.94;;;3.14;53.97
20971;BME280;10644;48.834;10.088;2024-01-16T08:36:47;96056.56;;;3.27;53.54
20971;BME280;10644;48.834;10.088;2024-01-16T08:39:13;96068.69;;;3.42;53.13
20971;BME280;10644;48.834;10.088;2024-01-16T08:41:38;96050.19;;;3.40;53.48
20971;BME280;10644;48.834;10.088;2024-01-16T08:44:06;96055.63;;;3.53;53.05
20971;BME280;10644;48.834;10.088;2024-01-16T08:46:32;96065.22;;;3.66;53.13
20971;BME280;10644;48.834;10.088;2024-01-16T08:48:57;96061.59;;;3.73;53.18
20971;BME280;10644;48.834;10.088;2024-01-16T08:51:22;96061.72;;;3.92;52.53
20971;BME280;10644;48.834;10.088;2024-01-16T08:53:48;96068.59;;;3.88;52.63
20971;BME280;10644;48.834;10.088;2024-01-16T08:56:13;96066.31;;;3.82;52.05
20971;BME280;10644;48.834;10.088;2024-01-16T08:58:44;96054.97;;;3.92;52.50
20971;BME280;10644;48.834;10.088;2024-01-16T09:01:11;96051.06;;;4.05;52.06
20971;BME280;10644;48.834;10.088;2024-01-16T09:03:36;96054.59;;;4.23;52.18
20971;BME280;10644;48.834;10.088;2024-01-16T09:06:02;96054.91;;;4.35;52.21
20971;BME280;10644;48.834;10.088;2024-01-16T09:08:27;96040.28;;;4.42;52.20
20971;BME280;10644;48.834;10.088;2024-01-16T09:10:53;96044.34;;;4.46;52.30
20971;BME280;10644;48.834;10.088;2024-01-16T09:13:21;96044.66;;;4.38;52.00
20971;BME280;10644;48.834;10.088;2024-01-16T09:15:48;96050.94;;;4.08;52.84
20971;BME280;10644;48.834;10.088;2024-01-16T09:18:14;96037.97;;;4.16;52.93
20971;BME280;10644;48.834;10.088;2024-01-16T09:20:43;96053.44;;;4.30;51.98
20971;BME280;10644;48.834;10.088;2024-01-16T09:23:08;96042.88;;;4.40;53.47
20971;BME280;10644;48.834;10.088;2024-01-16T09:25:34;96054.63;;;4.63;52.88
20971;BME280;10644;48.834;10.088;2024-01-16T09:28:00;96044.47;;;4.63;52.51
20971;BME280;10644;48.834;10.088;2024-01-16T09:30:27;96051.53;;;4.76;52.24
20971;BME280;10644;48.834;10.088;2024-01-16T09:32:53;96057.72;;;4.89;51.37
20971;BME280;10644;48.834;10.088;2024-01-16T09:35:18;96056.72;;;4.93;51.18
20971;BME280;10644;48.834;10.088;2024-01-16T09:37:44;96069.00;;;5.02;51.62
20971;BME280;10644;48.834;10.088;2024-01-16T09:40:10;96075.38;;;4.92;50.63
20971;BME280;10644;48.834;10.088;2024-01-16T09:42:36;96073.63;;;4.93;51.51
20971;BME280;10644;48.834;10.088;2024-01-16T09:45:01;96068.19;;;5.02;51.47
20971;BME280;10644;48.834;10.088;2024-01-16T09:47:30;96068.56;;;5.13;51.45
20971;BME280;10644;48.834;10.088;2024-01-16T09:50:02;96066.13;;;5.30;51.36
20971;BME280;10644;48.834;10.088;2024-01-16T09:52:30;96069.81;;;5.41;51.03
20971;BME280;10644;48.834;10.088;2024-01-16T09:54:56;96068.66;;;5.48;51.00
20971;BME280;10644;48.834;10.088;2024-01-16T09:57:25;96067.34;;;5.58;51.16
20971;BME280;10644;48.834;10.088;2024-01-16T09:59:51;96072.78;;;5.69;50.08
20971;BME280;10644;48.834;10.088;2024-01-16T10:02:18;96064.63;;;5.81;50.19
20971;BME280;10644;48.834;10.088;2024-01-16T10:04:44;96070.81;;;5.94;50.27
20971;BME280;10644;48.834;10.088;2024-01-16T10:07:12;96076.53;;;5.99;49.63
20971;BME280;10644;48.834;10.088;2024-01-16T10:09:40;96076.38;;;6.02;48.85
20971;BME280;10644;48.834;10.088;2024-01-16T10:12:09;96079.81;;;6.01;49.15
20971;BME280;10644;48.834;10.088;2024-01-16T10:14:36;96073.06;;;6.00;48.17
20971;BME280;10644;48.834;10.088;2024-01-16T10:17:03;96076.22;;;6.05;47.92
20971;BME280;10644;48.834;10.088;2024-01-16T10:19:32;96072.53;;;5.94;48.58
20971;BME280;10644;48.834;10.088;2024-01-16T10:22:05;96067.56;;;6.09;48.79
20971;BME280;10644;48.834;10.088;2024-01-16T10:24:33;96048.31;;;6.22;48.46
20971;BME280;10644;48.834;10.088;2024-01-16T10:27:01;96060.50;;;6.33;48.40
20971;BME280;10644;48.834;10.088;2024-01-16T10:29:28;96052.63;;;6.20;47.32
20971;BME280;10644;48.834;10.088;2024-01-16T10:31:54;96045.97;;;6.18;47.47
20971;BME280;10644;48.834;10.088;2024-01-16T10:34:22;96050.38;;;6.14;48.29
20971;BME280;10644;48.834;10.088;2024-01-16T10:36:51;96042.13;;;6.09;46.93
20971;BME280;10644;48.834;10.088;2024-01-16T10:39:17;96042.72;;;5.97;47.23
20971;BME280;10644;48.834;10.088;2024-01-16T10:41:54;96044.91;;;5.86;46.61
20971;BME280;10644;48.834;10.088;2024-01-16T10:44:19;96044.66;;;5.55;46.85
20971;BME280;10644;48.834;10.088;2024-01-16T10:46:46;96038.38;;;5.25;46.64
20971;BME280;10644;48.834;10.088;2024-01-16T10:49:11;96036.19;;;5.36;48.25
20971;BME280;10644;48.834;10.088;2024-01-16T10:51:37;96041.34;;;5.53;48.93
20971;BME280;10644;48.834;10.088;2024-01-16T10:54:05;96028.56;;;5.73;48.28
20971;BME280;10644;48.834;10.088;2024-01-16T10:56:35;96021.63;;;5.77;46.77
20971;BME280;10644;48.834;10.088;2024-01-16T11:01:31;96017.19;;;5.63;46.59
20971;BME280;10644;48.834;10.088;2024-01-16T11:04:00;96018.69;;;5.67;47.62
20971;BME280;10644;48.834;10.088;2024-01-16T11:06:27;96016.06;;;5.87;47.92
20971;BME280;10644;48.834;10.088;2024-01-16T11:08:54;96020.00;;;5.76;46.47
20971;BME280;10644;48.834;10.088;2024-01-16T11:11:24;96023.91;;;5.83;47.49
20971;BME280;10644;48.834;10.088;2024-01-16T11:13:50;96002.94;;;5.96;47.45
20971;BME280;10644;48.834;10.088;2024-01-16T11:16:16;96013.44;;;6.07;46.59
20971;BME280;10644;48.834;10.088;2024-01-16T11:18:42;96009.75;;;6.13;46.74
20971;BME280;10644;48.834;10.088;2024-01-16T11:21:09;96010.06;;;6.24;46.61
20971;BME280;10644;48.834;10.088;2024-01-16T11:23:36;96000.44;;;6.30;46.62
20971;BME280;10644;48.834;10.088;2024-01-16T11:26:32;96002.69;;;6.19;46.16
20971;BME280;10644;48.834;10.088;2024-01-16T11:28:59;95997.25;;;5.91;45.63
20971;BME280;10644;48.834;10.088;2024-01-16T11:31:35;96000.31;;;5.62;45.95
20971;BME280;10644;48.834;10.088;2024-01-16T11:34:06;95983.47;;;5.78;46.74
20971;BME280;10644;48.834;10.088;2024-01-16T11:36:51;95981.13;;;6.09;47.52
20971;BME280;10644;48.834;10.088;2024-01-16T11:39:24;95972.25;;;6.35;46.67
20971;BME280;10644;48.834;10.088;2024-01-16T11:41:57;95958.72;;;6.51;45.92
20971;BME280;10644;48.834;10.088;2024-01-16T11:47:21;95949.09;;;6.73;46.33
20971;BME280;10644;48.834;10.088;2024-01-16T11:49:48;95938.72;;;6.61;45.61
20971;BME280;10644;48.834;10.088;2024-01-16T11:52:40;95943.25;;;6.71;46.57
20971;BME280;10644;48.834;10.088;2024-01-16T11:58:25;95941.22;;;6.78;46.02
20971;BME280;10644;48.834;10.088;2024-01-16T12:00:50;95934.53;;;6.92;45.43
20971;BME280;10644;48.834;10.088;2024-01-16T12:03:21;95914.81;;;6.96;45.01
20971;BME280;10644;48.834;10.088;2024-01-16T12:06:04;95918.28;;;7.10;46.20
20971;BME280;10644;48.834;10.088;2024-01-16T12:08:33;95929.72;;;7.34;45.84
20971;BME280;10644;48.834;10.088;2024-01-16T12:10:58;95924.13;;;7.43;44.53
20971;BME280;10644;48.834;10.088;2024-01-16T12:13:25;95915.16;;;7.52;44.33
20971;BME280;10644;48.834;10.088;2024-01-16T12:15:59;95916.53;;;7.73;45.14
20971;BME280;10644;48.834;10.088;2024-01-16T12:18:25;95919.59;;;7.79;42.83
20971;BME280;10644;48.834;10.088;2024-01-16T12:20:53;95932.50;;;8.06;44.05
20971;BME280;10644;48.834;10.088;2024-01-16T12:23:18;95915.19;;;8.26;43.14
20971;BME280;10644;48.834;10.088;2024-01-16T12:25:45;95903.44;;;8.38;42.00
20971;BME280;10644;48.834;10.088;2024-01-16T12:28:10;95907.03;;;8.49;42.59
20971;BME280;10644;48.834;10.088;2024-01-16T12:30:37;95899.22;;;8.52;42.39
20971;BME280;10644;48.834;10.088;2024-01-16T12:33:14;95905.31;;;8.64;40.89
20971;BME280;10644;48.834;10.088;2024-01-16T12:35:40;95899.09;;;8.10;40.35
20971;BME280;10644;48.834;10.088;2024-01-16T12:38:08;95889.09;;;7.92;41.65
20971;BME280;10644;48.834;10.088;2024-01-16T12:40:39;95875.88;;;8.15;41.91
20971;BME280;10644;48.834;10.088;2024-01-16T12:43:07;95881.44;;;8.07;40.69
20971;BME280;10644;48.834;10.088;2024-01-16T12:45:34;95888.75;;;7.98;41.19
20971;BME280;10644;48.834;10.088;2024-01-16T12:48:00;95886.25;;;8.12;41.42
20971;BME280;10644;48.834;10.088;2024-01-16T12:50:29;95872.31;;;8.03;42.19
20971;BME280;10644;48.834;10.088;2024-01-16T12:55:30;95865.72;;;8.43;41.68
20971;BME280;10644;48.834;10.088;2024-01-16T13:00:50;95852.69;;;8.89;40.24
20971;BME280;10644;48.834;10.088;2024-01-16T13:03:18;95857.44;;;8.39;39.56
20971;BME280;10644;48.834;10.088;2024-01-16T13:05:44;95857.88;;;8.32;40.48
20971;BME280;10644;48.834;10.088;2024-01-16T13:08:16;95850.28;;;8.02;40.75
20971;BME280;10644;48.834;10.088;2024-01-16T13:10:42;95844.28;;;7.74;41.57